Nuiqsut, AK

5:59 PM AKST on February 21, 2017 (GMT -0900)
Alpine Airstrip | | Change Station

Elev 16 ft 70.34 °N, 150.94 °W | Updated 1 hour ago

Partly Cloudy
Partly Cloudy
-24 °F
Feels Like -49 °F
N
14
Wind Variable Wind from SSW

Today
High -- | Low -- °F
--% Chance of Precip.
Yesterday
High -- | Low -- °F
Precip. -- in
Pressure 30.23 in
Visibility 10.0 miles
Clouds Scattered Clouds 6000 ft
Windchill -49 °F
Dew Point -31 °F
Humidity 69%
Rainfall 0.00 in
Snow Depth Not available.
9:08 AM 5:28 PM
Waning Crescent, 20% visible
METAR PALP 220150Z 20012KT 10SM SCT060 M31/M35 A3023
Pressure 30.23 in
Visibility 10.0 miles
Clouds Scattered Clouds 6000 ft
Windchill -49 °F
Dew Point -31 °F
Humidity 69%
Rainfall 0.00 in
Snow Depth Not available.
9:08 AM 5:28 PM
Waning Crescent, 20% visible
METAR PALP 220150Z 20012KT 10SM SCT060 M31/M35 A3023

Get Your Daily Forecast Email!

Thanks for signing up!

Be on the lookout for a verification email in your inbox.

You'll start receiving the daily forecast at 8 AM.

×

10-Day Weather Forecast

Almanac

Astronomy

Feb. 21, 2017 Rise Set
Actual Time
Civil Twilight
Nautical Twilight
Astronomical Twilight
Moon
Length of Visible Light
Length of Day
Tomorrow will be .
, % of the Moon is Illuminated

Today's Extremes

State Highs State Lows

Community

WunderPhotos

Upload Photos

1,962,540 photos uploaded!

WunderBlog® & News

Nearby

Air Quality

  Air Quality AQ Index Pollutant
Not available.

Snow Depth

Station Depth Elevation

Earthquake Activity

City Distance Mag. Time & Date
Minimum magnitude displayed is 2.5.

Coastal Water Temperatures

Place Temperature

Stations

Nearby Weather Stations

Station Location Temp. Windchill Dew Point Humidity Wind Precip. Elev Updated Type
                   

Watches & Warnings

There are currently no watches in effect.